Time;durP1;ratioP1;P1;durP2;ratioP2;P2;SDS_P1;SDS_P2;PMS_P1;PMS_P2;Temp;Humidity;BMP_temperature;BMP_pressure;BME280_temperature;BME280_humidity;BME280_pressure;Samples;Min_cycle;Max_cycle;Signal;HPM_P1;HPM_P2
2023/06/30 00:01:55;;;;;;;7.75;3.53;;;14.40;99.90;;;;;;5022621;28;20044;-52
2023/06/30 00:04:27;;;;;;;8.20;3.70;;;14.40;99.90;;;;;;5022434;28;20199;-54
2023/06/30 00:06:56;;;;;;;9.38;3.58;;;14.40;99.90;;;;;;5020748;28;20393;-50
2023/06/30 00:09:22;;;;;;;10.43;4.95;;;14.40;99.90;;;;;;5005348;28;20055;-52
2023/06/30 00:11:50;;;;;;;9.13;4.18;;;14.30;99.90;;;;;;5033702;28;20041;-50
2023/06/30 00:14:16;;;;;;;8.10;3.22;;;14.20;99.90;;;;;;5009777;28;20103;-51
2023/06/30 00:16:41;;;;;;;9.77;3.97;;;14.10;99.90;;;;;;5023247;28;20443;-55
2023/06/30 00:19:08;;;;;;;6.82;3.47;;;14.10;99.90;;;;;;5037205;28;20463;-53
2023/06/30 00:21:34;;;;;;;9.40;3.63;;;14.00;99.90;;;;;;5022639;28;20171;-55
2023/06/30 00:24:04;;;;;;;7.50;3.85;;;13.90;99.90;;;;;;5019772;28;20099;-54
2023/06/30 00:26:30;;;;;;;11.52;4.40;;;13.90;99.90;;;;;;5020053;28;20032;-52
2023/06/30 00:28:57;;;;;;;8.88;3.97;;;13.80;99.90;;;;;;5038202;28;20292;-51
2023/06/30 00:31:23;;;;;;;7.88;3.42;;;13.80;99.90;;;;;;5024311;28;20051;-52
2023/06/30 00:33:49;;;;;;;11.30;4.50;;;13.70;99.90;;;;;;5027633;28;20047;-51
2023/06/30 00:36:17;;;;;;;10.15;4.45;;;13.70;99.90;;;;;;5024258;28;20103;-53
2023/06/30 00:38:44;;;;;;;10.30;3.97;;;13.70;99.90;;;;;;5018817;28;20041;-52
2023/06/30 00:41:10;;;;;;;4.88;3.53;;;13.70;99.90;;;;;;5021163;28;20059;-54
2023/06/30 00:43:38;;;;;;;8.18;4.22;;;13.70;99.90;;;;;;5036407;28;20112;-51
2023/06/30 00:46:05;;;;;;;8.07;3.70;;;13.60;99.90;;;;;;5020234;28;20056;-55
2023/06/30 00:48:31;;;;;;;10.63;3.83;;;13.60;99.90;;;;;;5024923;28;20103;-52
2023/06/30 00:50:58;;;;;;;12.25;4.35;;;13.50;99.90;;;;;;5025465;28;20037;-50
2023/06/30 00:53:24;;;;;;;6.18;3.20;;;13.50;99.90;;;;;;5045461;28;20045;-52
2023/06/30 00:55:50;;;;;;;7.47;3.90;;;13.50;99.90;;;;;;5013643;28;20064;-51
2023/06/30 00:58:17;;;;;;;8.55;3.53;;;13.50;99.90;;;;;;5022921;28;20303;-50
2023/06/30 01:00:43;;;;;;;8.20;3.53;;;13.50;99.90;;;;;;5015123;28;20033;-54
2023/06/30 01:03:32;;;;;;;10.63;4.00;;;13.50;99.90;;;;;;5012706;28;20049;-51
2023/06/30 01:06:20;;;;;;;11.43;3.92;;;13.50;99.90;;;;;;5028578;28;20156;-51
2023/06/30 01:09:18;;;;;;;8.82;3.63;;;13.40;99.90;;;;;;5008108;28;20499;-54
2023/06/30 01:11:44;;;;;;;7.68;3.10;;;13.40;99.90;;;;;;5015916;28;20527;-50
2023/06/30 01:14:11;;;;;;;10.57;4.13;;;13.30;99.90;;;;;;5024168;28;20127;-53
2023/06/30 01:16:39;;;;;;;8.65;3.38;;;13.30;99.90;;;;;;5031476;28;20036;-53
2023/06/30 01:19:18;;;;;;;6.10;3.15;;;13.30;99.90;;;;;;5042848;28;20043;-53
2023/06/30 01:21:46;;;;;;;13.38;3.20;;;13.30;99.90;;;;;;5021967;28;20037;-50
2023/06/30 01:24:16;;;;;;;7.63;3.15;;;13.30;99.90;;;;;;5024232;28;20049;-54
2023/06/30 01:26:42;;;;;;;11.82;4.20;;;13.30;99.90;;;;;;5022819;28;20043;-51
2023/06/30 01:29:10;;;;;;;11.00;4.10;;;13.30;99.90;;;;;;5030248;28;20187;-51
2023/06/30 01:31:36;;;;;;;5.13;3.33;;;13.30;99.90;;;;;;5024502;28;20041;-52
2023/06/30 01:34:02;;;;;;;10.60;2.83;;;13.30;99.90;;;;;;5024859;28;20388;-52
2023/06/30 01:36:29;;;;;;;10.73;4.15;;;13.30;99.90;;;;;;5039626;28;20037;-50
2023/06/30 01:38:54;;;;;;;8.00;3.33;;;13.20;99.90;;;;;;5027597;28;20041;-51
2023/06/30 01:41:20;;;;;;;6.80;3.10;;;13.20;99.90;;;;;;5022289;28;20131;-53
2023/06/30 01:43:47;;;;;;;6.18;3.20;;;13.30;99.90;;;;;;5057751;28;20048;-53
2023/06/30 01:46:13;;;;;;;7.72;3.40;;;13.30;99.90;;;;;;5025118;28;20518;-54
2023/06/30 01:48:40;;;;;;;6.05;3.05;;;13.20;99.90;;;;;;5012507;28;20060;-55
2023/06/30 01:51:07;;;;;;;8.32;3.30;;;13.20;99.90;;;;;;5008153;28;20049;-51
2023/06/30 01:53:33;;;;;;;6.57;3.50;;;13.20;99.90;;;;;;5027517;28;20040;-52
2023/06/30 01:55:59;;;;;;;9.45;3.00;;;13.30;99.90;;;;;;5026085;28;20043;-52
2023/06/30 01:58:24;;;;;;;8.88;3.40;;;13.20;99.90;;;;;;5029535;28;20056;-52
2023/06/30 02:00:50;;;;;;;8.32;3.25;;;13.20;99.90;;;;;;5024046;28;20494;-51
2023/06/30 02:03:16;;;;;;;8.32;3.00;;;13.20;99.90;;;;;;5021786;28;20045;-54
2023/06/30 02:05:42;;;;;;;8.60;2.80;;;13.20;99.90;;;;;;5040221;28;20562;-54
2023/06/30 02:08:07;;;;;;;7.07;3.15;;;13.20;99.90;;;;;;5023850;28;20427;-53
2023/06/30 02:10:33;;;;;;;10.48;3.80;;;13.20;99.90;;;;;;5043673;28;20045;-51
2023/06/30 02:12:59;;;;;;;10.70;4.25;;;13.20;99.90;;;;;;5021073;28;20135;-51
2023/06/30 02:15:24;;;;;;;10.00;3.60;;;13.20;99.90;;;;;;5022050;28;20668;-51
2023/06/30 02:17:50;;;;;;;8.80;4.05;;;13.20;99.90;;;;;;5017128;28;20050;-51
2023/06/30 02:20:16;;;;;;;9.82;3.47;;;13.20;99.90;;;;;;5025532;28;20044;-53
2023/06/30 02:22:42;;;;;;;9.88;3.47;;;13.20;99.90;;;;;;5022256;28;20435;-52
2023/06/30 02:25:07;;;;;;;10.60;3.65;;;13.30;99.90;;;;;;5022629;28;20108;-54
2023/06/30 02:27:33;;;;;;;7.80;3.78;;;13.30;99.90;;;;;;5046915;28;20056;-53
2023/06/30 02:30:05;;;;;;;9.77;3.47;;;13.20;99.90;;;;;;5041485;28;20690;-52
2023/06/30 02:32:55;;;;;;;11.38;4.18;;;13.20;99.90;;;;;;5016082;28;20079;-50
2023/06/30 02:35:21;;;;;;;7.85;3.28;;;13.10;99.90;;;;;;5043232;28;20041;-53
2023/06/30 02:37:47;;;;;;;8.57;3.45;;;13.00;99.90;;;;;;5021026;28;20653;-55
2023/06/30 02:40:13;;;;;;;9.45;3.22;;;13.00;99.90;;;;;;5044616;28;20037;-51
2023/06/30 02:42:38;;;;;;;7.70;3.80;;;12.90;99.90;;;;;;5025050;28;20037;-51
2023/06/30 02:45:05;;;;;;;6.32;2.92;;;12.90;99.90;;;;;;5038788;28;20189;-53
2023/06/30 02:47:30;;;;;;;9.10;3.50;;;12.90;99.90;;;;;;5006599;28;20033;-55
2023/06/30 02:49:56;;;;;;;9.52;3.45;;;12.90;99.90;;;;;;5008640;28;20045;-54
2023/06/30 02:52:22;;;;;;;8.35;3.60;;;12.90;99.90;;;;;;4995714;28;20092;-51
2023/06/30 02:54:47;;;;;;;6.53;3.30;;;12.80;99.90;;;;;;5020711;28;20047;-51
2023/06/30 02:57:13;;;;;;;7.00;3.17;;;12.80;99.90;;;;;;5021581;28;20045;-55
2023/06/30 02:59:39;;;;;;;7.97;3.40;;;12.80;99.90;;;;;;5023865;28;20181;-50
2023/06/30 03:02:05;;;;;;;4.18;2.88;;;12.70;99.90;;;;;;5022080;28;20061;-51
2023/06/30 03:04:30;;;;;;;7.78;3.22;;;12.90;99.90;;;;;;5006504;28;20045;-55
2023/06/30 03:06:56;;;;;;;6.97;2.97;;;12.90;99.90;;;;;;5003621;28;20048;-54
2023/06/30 03:09:22;;;;;;;10.38;2.90;;;12.80;99.90;;;;;;5003021;28;20045;-54
2023/06/30 03:11:48;;;;;;;7.55;3.20;;;12.90;99.90;;;;;;5025146;28;20130;-52
2023/06/30 03:14:13;;;;;;;7.07;3.85;;;12.90;99.90;;;;;;5023053;28;20053;-52
2023/06/30 03:16:39;;;;;;;8.13;3.42;;;12.90;99.90;;;;;;5019022;28;20393;-53
2023/06/30 03:21:43;;;;;;;5.72;3.47;;;12.90;99.90;;;;;;5016204;28;20046;-56
2023/06/30 03:24:08;;;;;;;5.57;2.88;;;12.90;99.90;;;;;;5006012;28;20407;-56
2023/06/30 03:26:34;;;;;;;6.75;3.00;;;12.80;99.90;;;;;;5005766;28;20131;-58
2023/06/30 03:29:01;;;;;;;5.35;3.00;;;12.80;99.90;;;;;;5005755;28;20171;-55
2023/06/30 03:31:27;;;;;;;8.75;4.03;;;12.80;99.90;;;;;;5006870;28;20042;-56
2023/06/30 03:33:53;;;;;;;18.75;10.80;;;12.80;99.90;;;;;;5006366;28;20038;-56
2023/06/30 03:36:18;;;;;;;7.75;4.90;;;12.70;99.90;;;;;;5004486;28;20500;-56
2023/06/30 03:38:44;;;;;;;7.78;3.85;;;12.80;99.90;;;;;;5003076;28;20497;-56
2023/06/30 03:41:10;;;;;;;8.55;4.10;;;12.90;99.90;;;;;;4988283;28;20044;-57
2023/06/30 03:43:35;;;;;;;7.05;3.42;;;12.90;99.90;;;;;;5004622;28;20053;-57
2023/06/30 03:46:01;;;;;;;8.27;3.42;;;12.80;99.90;;;;;;4989706;28;20549;-57
2023/06/30 03:48:27;;;;;;;6.32;3.63;;;12.70;99.90;;;;;;4990203;28;20071;-58
2023/06/30 03:50:53;;;;;;;6.50;3.97;;;12.70;99.90;;;;;;5006008;28;20365;-56
2023/06/30 03:53:20;;;;;;;10.32;4.18;;;12.70;99.90;;;;;;4984419;28;20046;-56
2023/06/30 03:55:45;;;;;;;8.90;4.18;;;12.70;99.90;;;;;;5020508;28;20218;-56
2023/06/30 03:58:11;;;;;;;10.05;3.67;;;12.70;99.90;;;;;;5003655;28;20128;-56
2023/06/30 04:00:37;;;;;;;8.30;3.38;;;12.70;99.90;;;;;;5005089;28;20045;-54
2023/06/30 04:03:03;;;;;;;10.05;3.63;;;12.70;99.90;;;;;;4990127;28;20128;-57
2023/06/30 04:05:28;;;;;;;6.40;2.90;;;12.70;99.90;;;;;;5005340;28;20037;-58
2023/06/30 04:07:54;;;;;;;8.50;3.28;;;12.80;99.90;;;;;;5006086;28;20039;-56
2023/06/30 04:10:20;;;;;;;11.32;3.95;;;12.80;99.90;;;;;;5004259;28;20037;-56
2023/06/30 04:12:45;;;;;;;5.57;3.65;;;12.80;99.90;;;;;;5025180;28;20042;-58
2023/06/30 04:15:11;;;;;;;5.45;3.15;;;12.80;99.90;;;;;;5003386;28;20049;-54
2023/06/30 04:17:37;;;;;;;6.82;3.65;;;12.80;99.90;;;;;;5004999;28;20042;-57
2023/06/30 04:20:07;;;;;;;6.28;3.83;;;12.80;99.90;;;;;;5007599;28;20057;-55
2023/06/30 04:22:33;;;;;;;4.22;2.60;;;12.80;99.90;;;;;;4999543;28;20050;-56
2023/06/30 04:24:59;;;;;;;8.80;2.90;;;12.80;99.90;;;;;;4990454;28;20045;-54
2023/06/30 04:27:24;;;;;;;5.93;2.95;;;12.80;99.90;;;;;;5008917;28;20045;-57
2023/06/30 04:29:50;;;;;;;14.80;10.57;;;12.90;99.90;;;;;;5012109;28;20037;-58
2023/06/30 04:32:16;;;;;;;22.85;16.15;;;12.90;99.90;;;;;;5014654;28;20737;-56
2023/06/30 04:34:41;;;;;;;13.63;9.30;;;12.90;99.90;;;;;;5011266;28;20060;-57
2023/06/30 04:37:08;;;;;;;12.20;5.95;;;12.90;99.90;;;;;;5008431;28;20179;-57
2023/06/30 04:39:34;;;;;;;7.82;4.32;;;12.90;99.90;;;;;;5013733;28;20163;-58
2023/06/30 04:42:00;;;;;;;7.45;3.65;;;13.00;99.90;;;;;;4993014;28;20569;-58
2023/06/30 04:44:25;;;;;;;8.57;3.85;;;13.00;99.90;;;;;;5011424;28;20061;-57
2023/06/30 04:46:51;;;;;;;7.40;3.25;;;13.20;99.90;;;;;;4997073;28;20124;-58
2023/06/30 04:49:17;;;;;;;9.30;3.20;;;13.20;99.90;;;;;;5013761;28;20055;-58
2023/06/30 04:51:45;;;;;;;12.77;4.07;;;13.40;99.90;;;;;;5012584;28;20049;-57
2023/06/30 04:54:14;;;;;;;9.60;4.10;;;13.50;99.90;;;;;;5009919;28;20389;-59
2023/06/30 04:56:40;;;;;;;11.57;4.47;;;13.60;99.90;;;;;;4989490;28;20049;-58
2023/06/30 04:59:05;;;;;;;10.80;3.63;;;13.70;99.90;;;;;;5012462;28;20400;-57
2023/06/30 05:01:32;;;;;;;9.98;3.65;;;13.70;99.90;;;;;;5012402;28;20048;-58
2023/06/30 05:03:59;;;;;;;8.60;3.42;;;13.80;99.90;;;;;;5008315;28;20496;-58
2023/06/30 05:06:24;;;;;;;8.27;3.53;;;13.80;99.90;;;;;;4994982;28;20037;-60
2023/06/30 05:08:50;;;;;;;11.00;3.92;;;13.90;99.90;;;;;;5008353;28;20538;-58
2023/06/30 05:11:22;;;;;;;5.95;3.40;;;14.00;99.90;;;;;;5011403;28;20045;-56
2023/06/30 05:13:47;;;;;;;9.90;4.13;;;14.00;99.90;;;;;;5011066;28;20049;-59
2023/06/30 05:16:13;;;;;;;8.02;3.75;;;14.10;99.90;;;;;;4996017;28;20044;-59
2023/06/30 05:18:39;;;;;;;10.30;3.60;;;14.20;99.90;;;;;;5025474;28;20665;-58
2023/06/30 05:21:08;;;;;;;8.00;3.90;;;14.30;99.90;;;;;;4992630;28;20037;-61
2023/06/30 05:23:34;;;;;;;10.32;3.75;;;14.40;99.90;;;;;;4994446;28;20539;-57
2023/06/30 05:26:00;;;;;;;8.25;3.92;;;14.40;99.90;;;;;;5008640;28;20037;-58
2023/06/30 05:28:25;;;;;;;11.15;3.33;;;14.50;99.90;;;;;;5009759;28;20052;-58
2023/06/30 05:30:51;;;;;;;7.47;3.55;;;14.60;99.90;;;;;;5002819;28;20115;-58
2023/06/30 05:33:17;;;;;;;8.95;3.33;;;14.70;99.90;;;;;;5011886;28;20041;-58
2023/06/30 05:35:42;;;;;;;7.05;3.22;;;14.80;99.90;;;;;;5006725;28;20524;-60
2023/06/30 05:38:08;;;;;;;10.20;3.45;;;14.80;99.90;;;;;;4989636;28;20540;-57
2023/06/30 05:40:34;;;;;;;11.20;3.35;;;15.00;99.90;;;;;;5007795;28;20554;-58
2023/06/30 05:43:00;;;;;;;10.00;2.80;;;15.10;99.90;;;;;;5007963;28;20033;-57
2023/06/30 05:45:25;;;;;;;8.88;3.03;;;15.20;99.90;;;;;;5008117;28;20047;-57
2023/06/30 05:47:51;;;;;;;8.18;2.72;;;15.30;99.90;;;;;;5006264;28;20057;-57
2023/06/30 05:50:17;;;;;;;8.65;2.28;;;15.40;99.90;;;;;;5006136;28;20381;-57
2023/06/30 05:52:43;;;;;;;6.72;2.70;;;15.50;99.90;;;;;;5026722;28;20618;-60
2023/06/30 05:55:11;;;;;;;8.73;2.40;;;15.60;99.90;;;;;;5004486;28;20887;-58
2023/06/30 05:57:37;;;;;;;8.40;2.63;;;15.70;99.90;;;;;;5022076;28;20390;-58
2023/06/30 06:00:07;;;;;;;6.75;2.80;;;15.80;99.90;;;;;;5022945;28;20060;-59
2023/06/30 06:02:34;;;;;;;6.45;2.53;;;15.90;99.90;;;;;;5005261;28;20159;-58
2023/06/30 06:04:59;;;;;;;5.07;3.03;;;16.00;99.90;;;;;;5006384;28;20037;-60
2023/06/30 06:07:25;;;;;;;7.25;2.72;;;16.00;99.90;;;;;;5008375;28;20538;-57
2023/06/30 06:09:51;;;;;;;6.13;2.28;;;16.10;99.90;;;;;;5001964;28;20049;-57
2023/06/30 06:12:26;;;;;;;8.40;2.95;;;16.10;99.90;;;;;;5009129;28;20128;-56
2023/06/30 06:14:51;;;;;;;11.20;2.85;;;16.20;99.90;;;;;;5003185;28;20049;-58
2023/06/30 06:17:23;;;;;;;10.68;2.50;;;16.30;99.90;;;;;;5003688;28;20104;-55
2023/06/30 06:19:51;;;;;;;8.15;1.73;;;16.40;99.90;;;;;;5005858;28;20048;-58
2023/06/30 06:22:17;;;;;;;8.65;1.95;;;16.50;99.90;;;;;;4989284;28;20046;-57
2023/06/30 06:24:43;;;;;;;7.35;2.25;;;16.50;99.90;;;;;;4989846;28;20083;-58
2023/06/30 06:27:08;;;;;;;8.32;2.33;;;16.50;99.90;;;;;;4989135;28;20045;-59
2023/06/30 06:29:34;;;;;;;7.30;1.90;;;16.50;99.90;;;;;;5004241;28;20496;-59
2023/06/30 06:32:03;;;;;;;5.13;1.63;;;16.50;99.90;;;;;;5004435;28;20053;-58
2023/06/30 06:34:29;;;;;;;4.63;1.65;;;16.50;99.90;;;;;;5005248;28;20053;-59
2023/06/30 06:36:55;;;;;;;5.47;1.90;;;16.60;99.90;;;;;;5004910;28;20045;-58
2023/06/30 06:39:20;;;;;;;4.30;1.60;;;16.60;99.90;;;;;;4999657;28;20516;-60
2023/06/30 06:41:46;;;;;;;7.15;1.80;;;16.60;99.90;;;;;;5023633;28;20160;-59
2023/06/30 06:44:12;;;;;;;5.20;1.60;;;16.70;99.90;;;;;;4988818;28;20540;-59
2023/06/30 06:46:38;;;;;;;9.90;2.13;;;16.70;99.90;;;;;;4987361;28;20551;-60
2023/06/30 06:49:04;;;;;;;7.28;2.03;;;16.70;99.90;;;;;;5000630;28;20041;-59
2023/06/30 06:51:29;;;;;;;6.60;1.85;;;16.80;99.90;;;;;;5003323;28;20042;-60
2023/06/30 06:53:55;;;;;;;6.20;2.00;;;17.00;99.90;;;;;;5006463;28;20091;-57
2023/06/30 06:56:24;;;;;;;6.82;1.73;;;16.90;99.90;;;;;;4999195;28;20072;-58
2023/06/30 06:58:50;;;;;;;6.78;2.10;;;17.00;99.90;;;;;;5025643;28;20420;-58
2023/06/30 07:01:16;;;;;;;4.53;1.65;;;17.10;99.90;;;;;;5003072;28;20081;-59
2023/06/30 07:03:41;;;;;;;7.07;1.85;;;17.20;99.90;;;;;;4985353;28;20033;-58
2023/06/30 07:06:07;;;;;;;9.63;2.13;;;17.20;99.90;;;;;;4986709;28;20107;-60
2023/06/30 07:08:35;;;;;;;9.13;1.55;;;17.10;99.90;;;;;;4988774;28;20045;-60
2023/06/30 07:11:06;;;;;;;5.10;1.80;;;16.90;99.90;;;;;;4988137;28;20143;-58
2023/06/30 07:13:35;;;;;;;8.73;2.20;;;16.70;99.90;;;;;;5002140;28;20045;-59
2023/06/30 07:16:01;;;;;;;5.32;1.83;;;16.70;99.90;;;;;;4991223;28;20170;-58
2023/06/30 07:18:26;;;;;;;6.22;2.05;;;16.70;99.90;;;;;;4988653;28;20407;-56
2023/06/30 07:20:53;;;;;;;6.35;1.80;;;16.90;99.90;;;;;;5022026;28;20051;-59
2023/06/30 07:23:19;;;;;;;7.75;1.52;;;17.10;99.90;;;;;;5004477;28;20065;-60
2023/06/30 07:25:46;;;;;;;6.32;1.92;;;17.20;99.90;;;;;;5006217;28;20033;-59
2023/06/30 07:28:12;;;;;;;5.60;1.73;;;17.40;99.90;;;;;;5004926;28;20103;-60
2023/06/30 07:30:40;;;;;;;6.63;1.80;;;17.60;99.90;;;;;;4988074;28;20407;-58
2023/06/30 07:33:06;;;;;;;8.93;2.28;;;17.80;99.90;;;;;;5005011;28;20266;-57
2023/06/30 07:35:31;;;;;;;5.45;1.90;;;17.90;99.90;;;;;;5007082;28;20057;-57
2023/06/30 07:37:57;;;;;;;10.63;2.67;;;17.80;99.90;;;;;;4985748;28;20518;-59
2023/06/30 07:40:23;;;;;;;6.13;1.65;;;17.60;99.90;;;;;;4987272;28;20052;-59
2023/06/30 07:42:48;;;;;;;7.45;1.98;;;17.50;99.90;;;;;;4988242;28;20039;-57
2023/06/30 07:45:18;;;;;;;4.82;2.00;;;17.40;99.90;;;;;;4989158;28;20041;-60
2023/06/30 07:47:52;;;;;;;8.68;2.17;;;17.40;99.90;;;;;;4984398;28;20334;-59
2023/06/30 07:50:17;;;;;;;7.15;2.38;;;17.50;99.90;;;;;;5005120;28;20403;-59
2023/06/30 07:52:45;;;;;;;6.38;2.03;;;17.80;99.90;;;;;;5005574;28;20250;-59
2023/06/30 07:55:17;;;;;;;5.70;1.50;;;18.00;99.90;;;;;;5006881;28;20471;-59
2023/06/30 07:57:47;;;;;;;6.45;1.63;;;17.90;99.90;;;;;;4990040;28;20037;-59
2023/06/30 08:00:18;;;;;;;4.28;1.65;;;18.00;99.90;;;;;;5006019;28;20045;-58
2023/06/30 08:02:45;;;;;;;5.38;1.58;;;17.90;99.90;;;;;;5006827;28;20038;-57
2023/06/30 08:05:11;;;;;;;2.58;1.42;;;18.00;99.90;;;;;;5002815;28;20052;-58
2023/06/30 08:07:36;;;;;;;4.72;1.50;;;18.20;99.90;;;;;;4990667;28;20045;-59
2023/06/30 08:10:03;;;;;;;6.22;2.05;;;18.30;99.90;;;;;;5004543;28;20045;-59
2023/06/30 08:12:35;;;;;;;5.53;1.50;;;18.30;99.90;;;;;;5004967;28;20091;-59
2023/06/30 08:15:01;;;;;;;5.05;1.52;;;18.30;99.90;;;;;;5003793;28;20048;-60
2023/06/30 08:17:26;;;;;;;6.10;1.60;;;18.30;99.90;;;;;;5005019;28;20041;-60
2023/06/30 08:19:55;;;;;;;5.80;1.75;;;18.40;99.90;;;;;;4992115;28;20040;-57
2023/06/30 08:22:21;;;;;;;4.22;1.67;;;18.40;99.90;;;;;;4994465;28;20120;-57
2023/06/30 08:24:47;;;;;;;3.35;1.17;;;18.50;99.90;;;;;;5008050;28;20180;-58
2023/06/30 08:27:13;;;;;;;2.85;1.27;;;18.60;99.90;;;;;;5009776;28;20049;-57
2023/06/30 08:29:39;;;;;;;7.00;1.70;;;18.70;99.90;;;;;;4989847;28;20046;-57
2023/06/30 08:32:06;;;;;;;5.47;1.40;;;18.80;99.90;;;;;;5009253;28;20041;-59
2023/06/30 08:34:31;;;;;;;4.70;1.30;;;19.00;99.60;;;;;;5009087;28;20052;-56
2023/06/30 08:36:57;;;;;;;5.00;1.48;;;19.10;99.20;;;;;;5009406;28;20520;-56
2023/06/30 08:39:26;;;;;;;10.88;1.40;;;19.20;99.60;;;;;;5006421;28;20041;-59
2023/06/30 08:41:54;;;;;;;4.20;1.73;;;19.00;99.20;;;;;;5007081;28;20049;-59
2023/06/30 08:44:23;;;;;;;3.50;1.38;;;18.90;99.10;;;;;;5003295;28;20041;-57
2023/06/30 08:46:53;;;;;;;7.75;2.00;;;18.80;98.70;;;;;;5006532;28;20108;-58
2023/06/30 08:49:21;;;;;;;6.43;1.90;;;18.80;99.10;;;;;;5005024;28;20080;-57
2023/06/30 08:51:57;;;;;;;6.55;1.35;;;19.10;99.70;;;;;;5008543;28;20492;-59
2023/06/30 08:54:24;;;;;;;7.18;1.75;;;19.10;98.70;;;;;;5007489;28;20451;-58
2023/06/30 08:56:49;;;;;;;6.07;1.50;;;19.10;98.60;;;;;;5004897;28;20045;-57
2023/06/30 08:59:15;;;;;;;5.25;1.55;;;19.30;98.90;;;;;;5004192;28;20423;-58
2023/06/30 09:01:44;;;;;;;8.23;1.80;;;19.30;97.10;;;;;;4989906;28;20092;-60
2023/06/30 09:04:10;;;;;;;5.03;1.65;;;19.40;97.50;;;;;;5005216;28;20068;-58
2023/06/30 09:06:37;;;;;;;3.80;1.42;;;19.70;98.10;;;;;;4990085;28;20041;-60
2023/06/30 09:09:09;;;;;;;4.07;1.77;;;19.80;97.60;;;;;;5002496;28;20054;-55
2023/06/30 09:11:36;;;;;;;4.13;1.70;;;20.10;97.80;;;;;;5006734;28;20443;-56
2023/06/30 09:14:03;;;;;;;3.95;1.75;;;20.20;96.60;;;;;;5011264;28;20037;-57
2023/06/30 09:16:33;;;;;;;6.80;1.80;;;20.20;97.30;;;;;;5010073;28;20195;-59
2023/06/30 09:18:59;;;;;;;8.93;2.05;;;20.20;97.50;;;;;;5003679;28;20489;-59
2023/06/30 09:21:28;;;;;;;3.78;1.67;;;20.00;97.20;;;;;;5024393;22;20052;-53
2023/06/30 09:23:53;;;;;;;2.63;1.30;;;19.60;97.20;;;;;;5018487;28;20155;-57
2023/06/30 09:26:19;;;;;;;6.50;2.00;;;19.70;97.60;;;;;;5026271;28;20136;-57
2023/06/30 09:28:45;;;;;;;4.78;1.88;;;20.00;98.00;;;;;;5015740;28;20282;-54
2023/06/30 09:31:12;;;;;;;6.93;1.50;;;20.20;96.90;;;;;;5018080;28;20053;-56
2023/06/30 09:33:39;;;;;;;3.90;1.83;;;20.10;97.20;;;;;;5024039;28;20034;-52
2023/06/30 09:36:15;;;;;;;7.78;1.67;;;19.90;96.90;;;;;;5021441;28;20045;-55
2023/06/30 09:38:41;;;;;;;4.70;1.63;;;20.10;97.30;;;;;;5014955;28;20052;-58
2023/06/30 09:41:19;;;;;;;5.10;1.63;;;20.40;97.30;;;;;;5028726;28;20036;-56
2023/06/30 09:43:45;;;;;;;4.32;1.50;;;20.40;95.90;;;;;;5031328;28;20574;-56
2023/06/30 09:46:11;;;;;;;6.10;1.90;;;20.30;95.50;;;;;;5025061;28;20072;-55
2023/06/30 09:48:43;;;;;;;6.30;2.22;;;20.10;94.90;;;;;;5015719;28;20353;-58
2023/06/30 09:51:09;;;;;;;9.65;1.88;;;20.20;96.00;;;;;;5029714;28;20618;-56
2023/06/30 09:53:40;;;;;;;4.93;1.48;;;20.50;96.30;;;;;;5013945;28;20041;-54
2023/06/30 09:56:08;;;;;;;2.92;1.65;;;20.60;94.70;;;;;;5026259;28;20029;-55
2023/06/30 09:58:35;;;;;;;9.02;2.13;;;20.50;95.00;;;;;;5050080;28;20060;-58
2023/06/30 10:01:05;;;;;;;8.38;2.15;;;20.60;95.30;;;;;;5010621;28;20025;-55
2023/06/30 10:03:30;;;;;;;3.72;1.45;;;20.60;94.60;;;;;;5023894;28;20048;-57
2023/06/30 10:05:57;;;;;;;4.68;2.00;;;20.40;95.30;;;;;;5029075;28;20029;-53
2023/06/30 10:08:23;;;;;;;5.22;1.60;;;20.40;95.70;;;;;;5012292;28;20033;-55
2023/06/30 10:10:54;;;;;;;4.78;1.42;;;20.60;96.00;;;;;;5024674;28;20075;-51
2023/06/30 10:13:20;;;;;;;3.80;1.38;;;20.50;95.30;;;;;;5026737;28;20048;-52
2023/06/30 10:15:46;;;;;;;6.30;1.80;;;20.40;95.30;;;;;;5047702;28;20061;-57
2023/06/30 10:18:17;;;;;;;4.63;1.58;;;20.20;94.90;;;;;;5030087;28;20427;-57
2023/06/30 10:20:43;;;;;;;5.50;1.50;;;20.10;95.40;;;;;;5027527;28;20048;-55
2023/06/30 10:23:09;;;;;;;3.25;1.30;;;19.80;94.90;;;;;;5029684;28;20037;-54
2023/06/30 10:25:37;;;;;;;6.07;1.40;;;19.90;95.30;;;;;;5029642;28;20057;-55
2023/06/30 10:28:06;;;;;;;6.15;1.70;;;20.30;96.00;;;;;;5028230;28;20048;-56
2023/06/30 10:30:32;;;;;;;4.97;1.60;;;20.70;95.70;;;;;;5025894;28;20053;-57
2023/06/30 10:33:01;;;;;;;4.25;1.23;;;20.70;94.90;;;;;;5012629;28;20112;-54
2023/06/30 10:35:28;;;;;;;4.20;1.40;;;20.70;93.50;;;;;;5009724;28;20136;-55
2023/06/30 10:37:55;;;;;;;2.50;1.30;;;21.00;94.40;;;;;;5043013;28;20128;-53
2023/06/30 10:40:29;;;;;;;7.45;2.30;;;21.10;94.50;;;;;;5016277;28;20041;-54
2023/06/30 10:42:57;;;;;;;4.63;1.65;;;21.10;93.50;;;;;;5020025;28;20124;-57
2023/06/30 10:45:27;;;;;;;6.40;1.83;;;21.10;93.30;;;;;;5020805;28;20065;-55
2023/06/30 10:47:53;;;;;;;4.75;1.73;;;21.30;93.90;;;;;;5043275;28;20767;-53
2023/06/30 10:50:25;;;;;;;3.83;1.30;;;21.60;93.70;;;;;;5019969;28;20079;-56
2023/06/30 10:52:54;;;;;;;2.50;1.50;;;21.60;92.60;;;;;;5023808;28;20072;-58
2023/06/30 10:55:21;;;;;;;7.05;1.60;;;21.80;92.70;;;;;;5023227;28;20052;-53
2023/06/30 10:57:52;;;;;;;3.85;1.45;;;21.80;91.50;;;;;;5045575;28;20096;-53
2023/06/30 11:00:21;;;;;;;9.20;1.80;;;21.20;87.90;;;;;;5011213;28;20115;-52
2023/06/30 11:02:56;;;;;;;4.10;1.20;;;21.10;90.60;;;;;;5004345;28;20046;-56
2023/06/30 11:05:38;;;;;;;5.07;1.77;;;21.10;92.00;;;;;;5024418;28;20055;-57
2023/06/30 11:08:09;;;;;;;4.45;1.55;;;20.80;92.30;;;;;;5034558;28;20041;-52
2023/06/30 11:10:35;;;;;;;2.90;1.38;;;20.70;92.60;;;;;;5019347;28;20064;-54
2023/06/30 11:13:09;;;;;;;3.40;1.55;;;20.80;92.30;;;;;;5036334;28;20041;-56
2023/06/30 11:15:49;;;;;;;4.32;1.52;;;20.80;92.80;;;;;;5026018;28;20503;-58
2023/06/30 11:18:22;;;;;;;4.93;2.08;;;21.10;93.10;;;;;;5017192;28;20503;-54
2023/06/30 11:21:05;;;;;;;4.22;1.92;;;21.60;92.80;;;;;;5010251;28;20601;-54
2023/06/30 11:23:37;;;;;;;4.87;2.23;;;21.20;92.80;;;;;;5019436;28;20158;-51
2023/06/30 11:26:13;;;;;;;5.13;2.33;;;21.10;93.20;;;;;;5025090;28;20029;-53
2023/06/30 11:28:40;;;;;;;3.65;1.58;;;21.40;93.60;;;;;;5025703;28;20529;-54
2023/06/30 11:31:06;;;;;;;4.00;1.80;;;21.50;93.00;;;;;;5024468;28;20349;-56
2023/06/30 11:33:38;;;;;;;4.80;2.15;;;21.60;91.90;;;;;;5022156;28;20467;-57
2023/06/30 11:36:11;;;;;;;7.18;1.75;;;21.60;91.30;;;;;;5020738;28;20527;-57
2023/06/30 11:38:43;;;;;;;5.05;1.88;;;21.50;91.40;;;;;;5022721;28;20399;-56
2023/06/30 11:41:08;;;;;;;3.95;1.92;;;21.80;92.00;;;;;;5007132;28;20075;-55
2023/06/30 11:43:34;;;;;;;4.80;1.80;;;21.80;91.40;;;;;;5007199;28;20308;-56
2023/06/30 11:46:00;;;;;;;5.38;2.45;;;21.70;91.40;;;;;;5027677;28;20406;-56
2023/06/30 11:48:30;;;;;;;7.07;2.20;;;21.80;92.00;;;;;;5022409;28;20053;-54
2023/06/30 11:50:56;;;;;;;8.05;2.72;;;22.00;92.00;;;;;;5023233;28;20120;-52
2023/06/30 11:53:22;;;;;;;3.95;2.17;;;21.80;91.60;;;;;;5026739;28;20466;-53
2023/06/30 11:55:50;;;;;;;5.85;2.22;;;21.80;92.40;;;;;;5036057;28;20044;-53
2023/06/30 11:58:19;;;;;;;5.10;1.90;;;22.00;91.70;;;;;;5023455;28;20040;-57
2023/06/30 12:00:45;;;;;;;5.35;2.47;;;22.40;92.30;;;;;;5007929;28;20094;-52
2023/06/30 12:03:15;;;;;;;3.92;2.17;;;22.70;91.70;;;;;;5019375;28;20511;-55
2023/06/30 12:05:42;;;;;;;5.22;1.80;;;22.80;89.10;;;;;;5046145;28;20482;-54
2023/06/30 12:08:07;;;;;;;3.53;1.98;;;22.60;89.80;;;;;;5021392;28;20408;-54
2023/06/30 12:10:37;;;;;;;4.07;1.67;;;22.60;87.90;;;;;;5026100;28;20052;-57
2023/06/30 12:13:06;;;;;;;5.18;2.03;;;22.50;89.80;;;;;;5008395;28;20049;-53
2023/06/30 12:15:36;;;;;;;5.07;2.10;;;22.60;90.60;;;;;;5042072;28;20394;-54
2023/06/30 12:18:05;;;;;;;3.05;1.50;;;22.70;87.40;;;;;;5040516;28;20518;-56
2023/06/30 12:20:36;;;;;;;3.35;1.80;;;22.90;88.90;;;;;;5038273;28;20487;-52
2023/06/30 12:23:06;;;;;;;8.50;2.55;;;22.60;87.10;;;;;;5020051;28;20041;-57
2023/06/30 12:25:36;;;;;;;4.43;1.88;;;22.30;88.60;;;;;;5042819;28;20462;-58
2023/06/30 12:28:12;;;;;;;7.00;2.15;;;22.70;90.10;;;;;;5025104;28;20118;-51
2023/06/30 12:30:38;;;;;;;5.85;2.47;;;22.40;89.20;;;;;;5027867;28;20515;-54
2023/06/30 12:33:08;;;;;;;5.85;2.22;;;22.30;87.60;;;;;;5039610;28;20044;-56
2023/06/30 12:35:38;;;;;;;5.30;2.08;;;22.40;88.30;;;;;;5038778;28;20098;-55
2023/06/30 12:38:07;;;;;;;6.20;2.20;;;22.40;87.80;;;;;;5011021;28;20045;-53
2023/06/30 12:40:33;;;;;;;5.70;2.00;;;22.50;89.80;;;;;;5027413;28;20084;-55
2023/06/30 12:42:59;;;;;;;4.85;1.70;;;22.60;89.60;;;;;;5001912;28;20803;-54
2023/06/30 12:45:24;;;;;;;4.78;1.70;;;22.50;89.10;;;;;;5005622;28;20037;-57
2023/06/30 12:47:50;;;;;;;5.20;1.80;;;22.50;88.90;;;;;;5011615;28;20052;-55
2023/06/30 12:50:16;;;;;;;5.45;2.03;;;22.50;89.00;;;;;;5028462;28;20526;-54